Time;durP1;ratioP1;P1;durP2;ratioP2;P2;SDS_P1;SDS_P2;PMS_P1;PMS_P2;Temp;Humidity;BMP_temperature;BMP_pressure;BME280_temperature;BME280_humidity;BME280_pressure;Samples;Min_cycle;Max_cycle;Signal;HPM_P1;HPM_P2
2023/05/13 00:02:41;;;;;;;1.30;0.77;;;17.50;64.00;;;;;;5967090;29;20042;-77
2023/05/13 00:05:48;;;;;;;1.10;0.73;;;17.50;63.80;;;;;;5982476;29;20054;-73
2023/05/13 00:08:55;;;;;;;2.97;1.00;;;17.50;63.40;;;;;;5979770;29;20068;-75
2023/05/13 00:12:02;;;;;;;1.35;0.93;;;17.50;63.40;;;;;;5979911;29;20070;-74
2023/05/13 00:15:16;;;;;;;3.25;1.00;;;17.50;63.20;;;;;;5980125;29;20042;-75
2023/05/13 00:18:26;;;;;;;1.77;1.00;;;17.40;63.00;;;;;;5979988;29;20038;-73
2023/05/13 00:21:32;;;;;;;1.42;1.08;;;17.40;63.00;;;;;;5981507;29;20073;-76
2023/05/13 00:24:37;;;;;;;2.15;1.00;;;17.40;62.70;;;;;;5979845;29;20034;-75
2023/05/13 00:27:48;;;;;;;2.80;0.90;;;17.40;62.50;;;;;;5981629;29;20034;-77
2023/05/13 00:30:58;;;;;;;3.15;0.80;;;17.30;62.30;;;;;;5983582;29;20068;-76
2023/05/13 00:34:07;;;;;;;1.48;0.88;;;17.30;62.30;;;;;;5985667;29;20038;-75
2023/05/13 00:37:15;;;;;;;2.65;0.77;;;17.30;62.10;;;;;;5999568;29;20062;-74
2023/05/13 00:40:27;;;;;;;6.00;1.08;;;17.30;62.10;;;;;;5984069;29;20388;-76
2023/05/13 00:43:35;;;;;;;1.15;0.70;;;17.30;61.90;;;;;;5985834;29;20038;-73
2023/05/13 00:46:42;;;;;;;5.40;0.70;;;17.30;61.60;;;;;;5999509;29;20035;-74
2023/05/13 00:49:49;;;;;;;1.85;1.10;;;17.20;61.50;;;;;;5985092;29;20029;-73
2023/05/13 00:53:04;;;;;;;1.38;0.70;;;17.30;61.50;;;;;;5985154;29;20050;-74
2023/05/13 00:56:13;;;;;;;1.75;0.70;;;17.30;61.30;;;;;;5983798;29;20053;-74
2023/05/13 00:59:26;;;;;;;1.20;0.80;;;17.30;61.30;;;;;;5968722;29;20098;-75
2023/05/13 01:03:00;;;;;;;1.35;0.60;;;17.30;61.10;;;;;;5983894;29;20074;-74
2023/05/13 01:06:26;;;;;;;0.77;0.63;;;17.30;60.80;;;;;;5969490;29;20035;-73
2023/05/13 01:09:55;;;;;;;0.98;0.70;;;17.30;60.60;;;;;;5985474;29;20034;-75
2023/05/13 01:13:27;;;;;;;2.45;0.95;;;17.20;60.50;;;;;;5984192;29;20039;-74
2023/05/13 01:16:54;;;;;;;0.90;0.60;;;17.20;60.40;;;;;;5983391;29;20038;-75
2023/05/13 01:20:08;;;;;;;2.42;1.30;;;17.20;60.30;;;;;;5983937;29;20325;-74
2023/05/13 01:23:21;;;;;;;5.20;0.98;;;17.10;60.30;;;;;;5969574;29;20065;-72
2023/05/13 01:26:28;;;;;;;5.95;1.00;;;17.10;60.40;;;;;;5986482;29;20544;-75
2023/05/13 01:29:36;;;;;;;;;;;17.10;60.40;;;;;;5985506;29;20038;-74
2023/05/13 01:32:45;;;;;;;0.70;0.70;;;17.10;60.40;;;;;;5998198;29;19954;-74
2023/05/13 01:35:59;;;;;;;2.78;0.70;;;17.10;60.40;;;;;;5983499;29;20061;-74
2023/05/13 01:39:14;;;;;;;0.85;0.80;;;17.00;61.20;;;;;;5983258;29;20041;-76
2023/05/13 01:42:27;;;;;;;0.75;0.60;;;17.10;60.60;;;;;;5997359;29;20030;-74
2023/05/13 01:45:37;;;;;;;1.15;0.52;;;17.00;60.60;;;;;;5983319;29;20030;-76
2023/05/13 01:48:46;;;;;;;0.93;0.45;;;17.00;60.70;;;;;;5968328;29;20217;-77
2023/05/13 01:51:57;;;;;;;0.75;0.60;;;16.90;60.80;;;;;;5991362;29;20030;-74
2023/05/13 01:55:11;;;;;;;0.90;0.85;;;16.90;60.90;;;;;;5989127;29;20050;-75
2023/05/13 01:58:22;;;;;;;0.77;0.70;;;16.90;61.00;;;;;;5961409;29;20042;-75
2023/05/13 02:01:30;;;;;;;4.38;0.93;;;16.90;61.10;;;;;;5962841;29;20034;-75
2023/05/13 02:04:40;;;;;;;0.88;0.70;;;16.80;61.20;;;;;;5963816;29;20091;-74
2023/05/13 02:07:44;;;;;;;0.75;0.70;;;16.90;61.40;;;;;;5966102;29;20066;-75
2023/05/13 02:11:01;;;;;;;1.13;0.65;;;16.80;61.30;;;;;;5973356;29;20035;-74
2023/05/13 02:14:11;;;;;;;2.15;0.80;;;16.80;61.50;;;;;;5969630;29;20050;-74
2023/05/13 02:17:19;;;;;;;0.50;0.50;;;16.80;61.50;;;;;;5977921;29;20051;-74
2023/05/13 02:20:26;;;;;;;1.52;0.50;;;16.80;61.40;;;;;;5962444;29;20043;-75
2023/05/13 02:23:37;;;;;;;1.17;0.70;;;16.70;62.30;;;;;;5961983;29;20352;-76
2023/05/13 02:26:47;;;;;;;0.98;0.75;;;16.80;61.40;;;;;;5977150;29;20110;-76
2023/05/13 02:29:53;;;;;;;1.00;0.60;;;16.80;61.30;;;;;;5975523;29;20180;-73
2023/05/13 02:33:08;;;;;;;8.07;0.75;;;16.80;61.30;;;;;;5961529;29;20054;-78
2023/05/13 02:36:15;;;;;;;0.75;0.60;;;16.90;61.20;;;;;;5963401;29;20030;-74
2023/05/13 02:39:21;;;;;;;0.80;0.70;;;16.90;61.10;;;;;;5963325;29;20031;-76
2023/05/13 02:42:31;;;;;;;0.57;0.52;;;16.90;60.90;;;;;;5978000;29;20042;-75
2023/05/13 02:45:42;;;;;;;2.55;0.60;;;16.90;60.90;;;;;;5964809;29;20034;-74
2023/05/13 02:48:50;;;;;;;1.55;0.70;;;16.90;60.90;;;;;;5978314;29;20125;-73
2023/05/13 02:51:58;;;;;;;0.60;0.60;;;16.90;61.00;;;;;;5965075;29;20034;-75
2023/05/13 02:55:14;;;;;;;2.30;0.85;;;16.80;61.00;;;;;;5977274;29;20125;-73
2023/05/13 02:58:21;;;;;;;2.08;0.80;;;16.80;61.20;;;;;;5959355;29;20045;-74
2023/05/13 03:01:26;;;;;;;3.72;0.77;;;16.70;61.10;;;;;;5960829;29;20042;-73
2023/05/13 03:04:36;;;;;;;1.73;0.60;;;16.60;61.20;;;;;;5959216;29;20118;-74
2023/05/13 03:07:42;;;;;;;;;;;16.60;61.20;;;;;;5944767;29;20830;-75
2023/05/13 03:10:50;;;;;;;4.50;0.50;;;16.60;61.20;;;;;;5974070;29;19932;-75
2023/05/13 03:14:03;;;;;;;0.60;0.60;;;16.60;61.00;;;;;;5960235;29;20046;-75
2023/05/13 03:17:16;;;;;;;1.90;0.55;;;16.60;61.00;;;;;;5960057;29;20043;-76
2023/05/13 03:20:24;;;;;;;0.82;0.47;;;16.60;61.00;;;;;;5973759;29;20145;-73
2023/05/13 03:23:36;;;;;;;1.27;0.77;;;16.60;60.90;;;;;;5978870;29;20049;-77
2023/05/13 03:26:49;;;;;;;0.80;0.50;;;16.60;60.90;;;;;;5995932;29;20034;-75
2023/05/13 03:29:57;;;;;;;1.30;0.50;;;16.60;60.80;;;;;;5982923;29;20114;-77
2023/05/13 03:33:21;;;;;;;2.35;0.80;;;16.70;60.90;;;;;;5988584;29;20133;-75
2023/05/13 03:36:34;;;;;;;3.33;0.57;;;16.70;60.90;;;;;;5958658;29;20050;-75
2023/05/13 03:39:41;;;;;;;1.05;0.50;;;16.70;61.00;;;;;;5958569;29;20436;-75
2023/05/13 03:42:51;;;;;;;3.20;0.77;;;16.60;61.10;;;;;;5958331;29;20031;-74
2023/05/13 03:46:02;;;;;;;1.00;0.43;;;16.60;61.20;;;;;;5978005;29;20038;-75
2023/05/13 03:49:15;;;;;;;0.77;0.65;;;16.50;61.30;;;;;;5982416;29;20038;-75
2023/05/13 03:52:26;;;;;;;1.13;0.57;;;16.50;61.40;;;;;;5980902;29;20034;-74
2023/05/13 03:55:37;;;;;;;0.95;0.65;;;16.40;61.40;;;;;;5982436;29;20065;-75
2023/05/13 03:58:47;;;;;;;1.15;0.70;;;16.40;61.40;;;;;;5980596;29;20039;-74
2023/05/13 04:01:54;;;;;;;1.45;0.60;;;16.40;61.30;;;;;;5982215;29;20049;-76
2023/05/13 04:05:09;;;;;;;0.70;0.50;;;16.40;61.30;;;;;;5983248;29;20102;-74
2023/05/13 04:08:21;;;;;;;1.00;0.50;;;16.50;61.20;;;;;;5986594;29;20031;-75
2023/05/13 04:11:26;;;;;;;3.50;0.40;;;16.40;61.00;;;;;;5985343;29;20062;-74
2023/05/13 04:14:35;;;;;;;0.68;0.40;;;16.50;60.90;;;;;;5985651;29;20042;-75
2023/05/13 04:17:42;;;;;;;0.50;0.50;;;16.40;60.70;;;;;;5986602;29;20041;-75
2023/05/13 04:20:52;;;;;;;0.80;0.60;;;16.40;60.80;;;;;;5986492;29;20483;-76
2023/05/13 04:24:07;;;;;;;0.40;0.30;;;16.40;61.00;;;;;;5984585;29;20112;-74
2023/05/13 04:27:16;;;;;;;2.30;0.80;;;16.40;61.20;;;;;;5986126;29;20027;-75
2023/05/13 04:30:24;;;;;;;1.65;0.77;;;16.40;61.20;;;;;;5985658;29;20030;-75
2023/05/13 04:33:29;;;;;;;1.88;0.52;;;16.20;61.00;;;;;;5985676;29;20037;-74
2023/05/13 04:36:36;;;;;;;0.50;0.50;;;16.20;60.80;;;;;;5984042;29;20061;-73
2023/05/13 04:39:47;;;;;;;0.70;0.50;;;16.30;61.80;;;;;;5984092;29;20401;-74
2023/05/13 04:42:54;;;;;;;1.33;0.80;;;16.30;61.10;;;;;;5963223;29;20099;-76
2023/05/13 04:46:10;;;;;;;0.70;0.65;;;16.40;61.10;;;;;;5963368;29;20034;-75
2023/05/13 04:49:21;;;;;;;2.20;0.82;;;16.40;61.10;;;;;;5961744;29;20047;-75
2023/05/13 04:52:27;;;;;;;1.58;0.60;;;16.40;61.00;;;;;;5984789;29;20491;-75
2023/05/13 04:55:35;;;;;;;2.88;0.80;;;16.40;61.00;;;;;;6006468;29;20026;-74
2023/05/13 04:58:46;;;;;;;0.82;0.52;;;16.40;60.90;;;;;;6006479;29;20054;-77
2023/05/13 05:01:54;;;;;;;0.98;0.70;;;16.40;60.90;;;;;;6006738;29;20106;-72
2023/05/13 05:05:01;;;;;;;0.77;0.70;;;16.40;60.90;;;;;;6021760;29;20132;-76
2023/05/13 05:08:08;;;;;;;1.48;0.50;;;16.50;61.00;;;;;;6007786;29;20045;-76
2023/05/13 05:11:21;;;;;;;1.33;0.60;;;16.50;60.80;;;;;;6006207;29;20033;-74
2023/05/13 05:14:30;;;;;;;1.05;0.73;;;16.60;60.90;;;;;;6001109;29;20049;-74
2023/05/13 05:17:35;;;;;;;0.80;0.52;;;16.60;60.70;;;;;;6002692;29;20170;-75
2023/05/13 05:20:42;;;;;;;0.73;0.52;;;16.60;60.60;;;;;;5994009;29;20034;-74
2023/05/13 05:23:56;;;;;;;1.27;0.60;;;16.60;60.50;;;;;;6001997;29;20038;-74
2023/05/13 05:27:08;;;;;;;0.95;0.70;;;16.60;60.50;;;;;;5999605;29;20026;-73
2023/05/13 05:30:21;;;;;;;3.17;0.80;;;16.70;60.60;;;;;;5983226;29;20030;-76
2023/05/13 05:33:37;;;;;;;1.27;0.80;;;16.70;60.40;;;;;;5998766;29;20042;-73
2023/05/13 05:36:47;;;;;;;1.00;0.73;;;16.80;60.20;;;;;;5982806;29;20022;-74
2023/05/13 05:39:54;;;;;;;1.15;0.70;;;16.80;60.20;;;;;;5984138;29;20113;-74
2023/05/13 05:43:09;;;;;;;2.97;0.70;;;16.80;60.10;;;;;;5982238;29;20139;-75
2023/05/13 05:46:21;;;;;;;0.95;0.80;;;16.80;60.30;;;;;;5983247;29;20057;-73
2023/05/13 05:49:30;;;;;;;0.90;0.70;;;16.90;60.20;;;;;;5982572;29;20050;-74
2023/05/13 05:52:35;;;;;;;;;;;16.90;60.30;;;;;;5968232;29;20038;-73
2023/05/13 05:55:41;;;;;;;2.67;0.60;;;16.90;60.20;;;;;;5984086;29;19952;-74
2023/05/13 05:58:54;;;;;;;3.85;0.73;;;16.90;60.00;;;;;;5983118;29;20065;-75
2023/05/13 06:02:06;;;;;;;1.95;0.80;;;16.90;60.00;;;;;;5983470;29;20130;-75
2023/05/13 06:05:13;;;;;;;1.77;0.80;;;17.00;60.00;;;;;;5982267;29;20030;-75
2023/05/13 06:08:28;;;;;;;2.28;1.00;;;17.10;60.10;;;;;;5996982;29;20035;-75
2023/05/13 06:11:36;;;;;;;2.75;1.17;;;17.10;60.00;;;;;;5997392;29;20038;-74
2023/05/13 06:14:42;;;;;;;0.77;0.70;;;17.10;60.00;;;;;;5997055;29;20447;-73
2023/05/13 06:17:51;;;;;;;7.35;1.17;;;17.10;60.00;;;;;;5983703;29;20034;-75
2023/05/13 06:20:59;;;;;;;1.33;0.95;;;17.20;59.90;;;;;;5983509;29;20121;-76
2023/05/13 06:24:05;;;;;;;2.92;0.98;;;17.20;59.80;;;;;;5982197;29;20041;-75
2023/05/13 06:27:14;;;;;;;1.85;0.73;;;17.30;59.70;;;;;;5981594;29;20646;-75
2023/05/13 06:30:22;;;;;;;1.48;0.95;;;17.30;59.60;;;;;;5996964;29;20037;-73
2023/05/13 06:33:30;;;;;;;2.05;0.82;;;17.40;59.50;;;;;;5983292;29;20050;-76
2023/05/13 06:36:38;;;;;;;1.20;0.90;;;17.40;59.40;;;;;;5983427;29;20042;-75
2023/05/13 06:39:45;;;;;;;1.10;0.70;;;17.50;59.30;;;;;;5982161;29;20035;-74
2023/05/13 06:42:54;;;;;;;1.33;0.80;;;17.50;59.10;;;;;;5983086;29;20043;-75
2023/05/13 06:46:11;;;;;;;0.90;0.63;;;17.50;59.10;;;;;;5982112;29;20030;-75
2023/05/13 06:49:18;;;;;;;1.27;0.77;;;17.50;59.00;;;;;;5982298;29;20030;-76
2023/05/13 06:52:24;;;;;;;1.83;0.93;;;17.50;58.90;;;;;;5982727;29;20038;-75
2023/05/13 06:55:30;;;;;;;0.70;0.63;;;17.50;59.60;;;;;;5996411;29;20037;-75
2023/05/13 06:58:35;;;;;;;1.33;0.73;;;17.40;58.90;;;;;;5966847;29;20053;-76
2023/05/13 07:01:41;;;;;;;1.55;1.00;;;17.40;58.80;;;;;;5983046;29;20114;-75
2023/05/13 07:04:46;;;;;;;2.47;1.08;;;17.40;58.90;;;;;;5981227;29;20049;-75
2023/05/13 07:07:54;;;;;;;1.23;1.00;;;17.40;59.10;;;;;;5982959;29;20045;-75
2023/05/13 07:11:03;;;;;;;3.35;1.27;;;17.40;59.10;;;;;;5981658;29;20546;-78
2023/05/13 07:14:10;;;;;;;2.33;1.10;;;17.50;59.10;;;;;;5967263;29;20030;-74
2023/05/13 07:17:17;;;;;;;2.10;1.30;;;17.50;59.10;;;;;;5981664;29;20046;-76
2023/05/13 07:20:25;;;;;;;2.47;1.45;;;17.60;59.00;;;;;;5995972;29;20345;-75
2023/05/13 07:23:34;;;;;;;1.92;1.10;;;17.50;59.00;;;;;;5966628;29;20030;-74
2023/05/13 07:26:40;;;;;;;2.00;1.42;;;17.60;59.00;;;;;;5982189;29;20045;-74
2023/05/13 07:29:48;;;;;;;4.85;1.20;;;17.70;58.90;;;;;;5995931;29;20084;-73
2023/05/13 07:32:54;;;;;;;5.07;1.88;;;17.80;58.80;;;;;;5980936;29;20118;-77
2023/05/13 07:36:11;;;;;;;2.85;1.40;;;17.90;58.70;;;;;;5982281;29;20041;-74
2023/05/13 07:39:19;;;;;;;6.90;1.33;;;18.20;58.40;;;;;;5981547;29;20038;-74
2023/05/13 07:42:26;;;;;;;4.03;1.20;;;18.30;57.90;;;;;;5980985;29;20109;-74
2023/05/13 07:45:33;;;;;;;2.08;1.25;;;18.50;57.70;;;;;;5980861;29;20050;-74
2023/05/13 07:48:42;;;;;;;2.67;1.60;;;18.70;57.40;;;;;;5980957;29;20110;-75
2023/05/13 07:51:48;;;;;;;3.53;1.55;;;18.80;57.10;;;;;;5980648;29;20453;-76
2023/05/13 07:54:58;;;;;;;1.42;1.17;;;19.00;56.90;;;;;;5982361;29;20141;-77
2023/05/13 07:58:10;;;;;;;1.67;1.27;;;19.10;56.70;;;;;;5980799;29;20538;-75
2023/05/13 08:01:14;;;;;;;5.97;1.73;;;19.20;56.30;;;;;;5980519;29;20487;-74
2023/05/13 08:04:23;;;;;;;3.72;1.98;;;19.40;56.10;;;;;;5981707;29;20026;-74
2023/05/13 08:07:34;;;;;;;3.50;1.15;;;19.60;55.90;;;;;;5981778;29;20050;-76
2023/05/13 08:10:38;;;;;;;3.85;1.48;;;19.70;55.60;;;;;;5980276;29;20031;-73
2023/05/13 08:13:47;;;;;;;1.90;1.27;;;19.70;55.50;;;;;;5980531;29;20026;-76
2023/05/13 08:16:54;;;;;;;1.05;0.95;;;19.90;55.40;;;;;;5981933;29;20045;-76
2023/05/13 08:20:10;;;;;;;1.52;1.02;;;19.90;55.10;;;;;;5995557;29;20130;-76
2023/05/13 08:23:19;;;;;;;1.92;1.00;;;19.90;54.70;;;;;;5981245;29;20471;-75
2023/05/13 08:26:29;;;;;;;2.05;1.35;;;19.90;54.60;;;;;;5981157;29;20031;-75
2023/05/13 08:29:39;;;;;;;1.30;1.00;;;19.90;54.80;;;;;;5981228;29;20033;-75
2023/05/13 08:32:51;;;;;;;1.08;0.90;;;19.70;54.90;;;;;;5980245;29;20286;-75
2023/05/13 08:35:59;;;;;;;;;;;19.60;55.10;;;;;;5981479;29;20039;-76
2023/05/13 08:39:08;;;;;;;2.05;1.30;;;19.70;55.30;;;;;;5995693;29;19928;-75
2023/05/13 08:42:21;;;;;;;5.20;1.20;;;19.70;55.20;;;;;;5994627;29;20035;-75
2023/05/13 08:45:33;;;;;;;3.55;1.48;;;19.80;55.30;;;;;;5980463;29;20226;-77
2023/05/13 08:48:42;;;;;;;2.63;1.48;;;20.00;55.10;;;;;;5966034;29;20068;-75
2023/05/13 08:51:49;;;;;;;2.60;1.13;;;20.20;54.60;;;;;;5983894;29;20045;-77
2023/05/13 08:54:58;;;;;;;4.20;1.77;;;20.30;54.10;;;;;;5985717;29;20046;-75
2023/05/13 08:58:14;;;;;;;4.15;1.42;;;20.50;53.90;;;;;;5984235;29;20026;-74
2023/05/13 09:01:22;;;;;;;2.75;1.45;;;20.50;53.70;;;;;;5983208;29;20482;-75
2023/05/13 09:04:30;;;;;;;5.38;1.40;;;20.50;53.60;;;;;;5968721;29;20066;-74
2023/05/13 09:07:41;;;;;;;2.25;1.38;;;20.50;53.70;;;;;;5985307;29;20065;-75
2023/05/13 09:10:54;;;;;;;1.83;1.27;;;20.50;53.90;;;;;;5985356;29;20030;-76
2023/05/13 09:14:10;;;;;;;2.38;1.20;;;20.50;54.10;;;;;;5983683;29;20039;-75
2023/05/13 09:17:24;;;;;;;1.20;1.08;;;20.50;54.20;;;;;;5969934;29;20054;-76
2023/05/13 09:20:35;;;;;;;3.15;1.75;;;20.50;54.00;;;;;;5985076;29;20113;-76
2023/05/13 09:23:45;;;;;;;1.35;1.08;;;20.50;53.90;;;;;;5983815;29;20068;-75
2023/05/13 09:26:52;;;;;;;1.02;0.70;;;20.50;53.90;;;;;;5984124;29;20034;-75
2023/05/13 09:30:02;;;;;;;1.55;0.82;;;20.60;53.60;;;;;;5985405;29;20026;-76
2023/05/13 09:33:18;;;;;;;1.40;0.95;;;20.60;52.90;;;;;;5985823;29;20041;-77
2023/05/13 09:36:24;;;;;;;1.15;0.80;;;20.70;52.70;;;;;;5998560;29;20038;-77
2023/05/13 09:39:31;;;;;;;0.93;0.68;;;20.70;52.40;;;;;;5983874;29;20085;-75
2023/05/13 09:42:48;;;;;;;1.25;0.73;;;20.90;51.90;;;;;;5997895;29;20130;-79
2023/05/13 09:45:57;;;;;;;0.73;0.70;;;20.90;51.10;;;;;;5983250;29;20436;-78
2023/05/13 09:49:15;;;;;;;1.67;0.80;;;21.00;51.00;;;;;;5984304;29;20041;-76
2023/05/13 09:52:21;;;;;;;1.08;0.40;;;21.10;50.30;;;;;;5999179;29;20038;-76
2023/05/13 09:55:28;;;;;;;0.93;0.52;;;21.20;49.80;;;;;;5980652;29;20042;-76
2023/05/13 09:58:35;;;;;;;1.38;0.60;;;21.50;49.20;;;;;;5969263;29;20042;-75
2023/05/13 10:01:44;;;;;;;0.90;0.50;;;21.70;48.50;;;;;;5975319;29;20042;-77
2023/05/13 10:04:54;;;;;;;0.75;0.52;;;21.90;47.60;;;;;;5960527;29;20100;-76
2023/05/13 10:08:08;;;;;;;2.78;0.60;;;21.90;46.60;;;;;;5962117;29;20463;-75
2023/05/13 10:11:25;;;;;;;0.40;0.40;;;21.90;46.20;;;;;;5960854;29;20045;-75
2023/05/13 10:14:35;;;;;;;2.00;0.68;;;21.90;45.70;;;;;;5961324;29;20126;-74
2023/05/13 10:17:49;;;;;;;2.63;0.55;;;22.00;45.50;;;;;;5963353;29;20168;-76
2023/05/13 10:20:56;;;;;;;0.47;0.30;;;22.10;45.20;;;;;;5983486;29;20108;-78
2023/05/13 10:24:11;;;;;;;1.08;0.60;;;22.20;44.50;;;;;;5998973;29;20189;-77
2023/05/13 10:27:21;;;;;;;0.65;0.40;;;22.30;44.20;;;;;;5984395;29;20518;-75
2023/05/13 10:30:31;;;;;;;0.55;0.20;;;22.30;43.80;;;;;;5983267;29;20147;-75
2023/05/13 10:33:36;;;;;;;1.27;0.60;;;22.30;43.80;;;;;;5996932;29;20046;-75
2023/05/13 10:37:16;;;;;;;1.27;0.60;;;22.30;43.70;;;;;;5983990;29;20030;-75
2023/05/13 10:40:38;;;;;;;3.25;0.63;;;22.10;43.70;;;;;;5997505;29;20117;-75
2023/05/13 10:43:47;;;;;;;0.60;0.50;;;22.00;43.80;;;;;;5982434;29;20030;-76
2023/05/13 10:46:58;;;;;;;2.70;0.52;;;22.00;43.70;;;;;;5997033;29;20058;-75
2023/05/13 10:50:26;;;;;;;2.60;0.80;;;22.00;43.70;;;;;;5984504;29;20030;-76
2023/05/13 10:53:36;;;;;;;0.40;0.40;;;22.00;43.50;;;;;;5981847;29;20079;-73
2023/05/13 10:56:45;;;;;;;0.40;0.40;;;22.30;43.20;;;;;;5960678;29;20034;-74
2023/05/13 11:00:36;;;;;;;1.13;0.43;;;22.80;41.70;;;;;;5961568;29;20042;-72
2023/05/13 11:03:49;;;;;;;2.78;0.80;;;22.90;41.30;;;;;;5967621;29;20133;-74
2023/05/13 11:07:18;;;;;;;2.90;0.60;;;23.00;41.10;;;;;;5984117;29;20120;-75
2023/05/13 11:10:31;;;;;;;0.85;0.38;;;22.90;41.30;;;;;;5982271;29;20467;-74
2023/05/13 11:13:39;;;;;;;1.75;0.40;;;22.90;41.60;;;;;;5963831;29;20042;-75
2023/05/13 11:17:03;;;;;;;1.15;0.60;;;22.80;41.80;;;;;;5964159;29;20038;-74
2023/05/13 11:20:10;;;;;;;1.92;0.57;;;22.60;42.70;;;;;;5964084;29;20066;-74
2023/05/13 11:23:21;;;;;;;1.08;0.60;;;22.90;42.30;;;;;;5979701;29;20155;-76
2023/05/13 11:26:27;;;;;;;0.20;0.20;;;23.40;41.50;;;;;;5980088;29;20046;-75
2023/05/13 11:29:36;;;;;;;0.47;0.38;;;23.80;40.80;;;;;;5979608;29;20045;-74
2023/05/13 11:32:55;;;;;;;1.23;0.68;;;24.00;39.90;;;;;;5962272;29;20061;-74
2023/05/13 11:36:12;;;;;;;1.17;0.93;;;24.00;39.70;;;;;;5973682;29;20141;-75
2023/05/13 11:39:25;;;;;;;0.80;0.43;;;24.30;39.50;;;;;;5957860;29;20084;-75
2023/05/13 11:42:36;;;;;;;0.77;0.60;;;24.10;39.10;;;;;;5959837;29;20042;-74
2023/05/13 11:45:49;;;;;;;0.80;0.55;;;23.80;39.40;;;;;;5959348;29;20114;-77
2023/05/13 11:49:05;;;;;;;0.35;0.30;;;23.50;40.20;;;;;;5956593;29;20058;-76
2023/05/13 11:52:14;;;;;;;0.20;0.20;;;23.40;40.50;;;;;;5981037;29;20087;-74
2023/05/13 11:55:26;;;;;;;0.55;0.47;;;23.40;40.40;;;;;;5996191;29;20049;-73
2023/05/13 11:58:34;;;;;;;2.63;0.38;;;23.30;40.30;;;;;;5980490;29;20062;-76
2023/05/13 12:01:42;;;;;;;0.60;0.35;;;23.60;40.60;;;;;;5980121;29;20038;-73
2023/05/13 12:04:55;;;;;;;0.70;0.40;;;23.90;40.10;;;;;;5981165;29;20070;-75
2023/05/13 12:08:05;;;;;;;4.60;0.45;;;23.80;39.90;;;;;;5980604;29;20090;-76
2023/05/13 12:11:17;;;;;;;0.52;0.40;;;23.60;40.20;;;;;;5994847;29;20638;-75
2023/05/13 12:14:29;;;;;;;2.83;2.20;;;23.40;40.90;;;;;;5981248;29;20061;-75
2023/05/13 12:17:37;;;;;;;0.60;0.60;;;23.20;41.30;;;;;;5980611;29;20113;-76
2023/05/13 12:20:43;;;;;;;1.48;0.77;;;23.10;41.80;;;;;;5981557;29;20039;-75
2023/05/13 12:23:49;;;;;;;3.92;0.77;;;23.10;42.00;;;;;;5980982;29;20038;-76
2023/05/13 12:27:09;;;;;;;0.33;0.33;;;23.10;42.10;;;;;;5985201;29;20527;-74
2023/05/13 12:30:20;;;;;;;0.30;0.30;;;23.20;42.20;;;;;;5984361;29;20038;-75
2023/05/13 12:33:48;;;;;;;0.40;0.40;;;23.10;42.10;;;;;;5985897;29;20069;-76
2023/05/13 12:37:11;;;;;;;0.60;0.30;;;22.90;42.10;;;;;;5999937;29;20038;-76
2023/05/13 12:40:17;;;;;;;2.03;0.82;;;22.80;42.30;;;;;;5969008;29;20034;-73
2023/05/13 12:43:25;;;;;;;6.78;0.50;;;22.60;42.60;;;;;;5984548;29;20034;-76
2023/05/13 12:46:35;;;;;;;0.35;0.35;;;22.40;43.00;;;;;;5962375;29;20049;-74
2023/05/13 12:50:02;;;;;;;0.95;0.60;;;22.30;43.20;;;;;;5946818;29;20038;-73
2023/05/13 12:53:11;;;;;;;0.43;0.22;;;22.30;43.40;;;;;;5961452;29;20038;-74
2023/05/13 12:56:20;;;;;;;0.40;0.40;;;22.30;43.30;;;;;;5961217;29;20059;-76
2023/05/13 12:59:28;;;;;;;4.53;0.50;;;22.50;43.20;;;;;;5961136;29;20111;-74
2023/05/13 13:02:36;;;;;;;1.65;0.35;;;22.70;43.20;;;;;;5961028;29;20035;-74
2023/05/13 13:05:45;;;;;;;0.50;0.50;;;22.80;43.20;;;;;;5961354;29;20051;-77
2023/05/13 13:08:54;;;;;;;0.63;0.40;;;22.80;43.30;;;;;;5967613;29;20038;-74
2023/05/13 13:12:05;;;;;;;1.10;0.50;;;22.60;43.50;;;;;;5984793;29;20180;-75
2023/05/13 13:15:17;;;;;;;0.73;0.60;;;22.50;43.60;;;;;;5983580;29;20073;-75
2023/05/13 13:18:25;;;;;;;0.83;0.60;;;22.40;43.70;;;;;;5985203;29;20038;-76
2023/05/13 13:21:31;;;;;;;0.65;0.60;;;22.30;43.80;;;;;;5984725;29;20073;-76
2023/05/13 13:24:40;;;;;;;2.25;0.40;;;22.30;43.80;;;;;;5968408;29;20038;-77
2023/05/13 13:27:49;;;;;;;0.95;0.40;;;22.30;43.70;;;;;;5984870;29;20041;-74
2023/05/13 13:30:59;;;;;;;0.50;0.50;;;22.30;43.70;;;;;;5985542;29;20070;-75
2023/05/13 13:34:10;;;;;;;0.60;0.40;;;22.20;43.60;;;;;;5968045;29;20034;-75
2023/05/13 13:37:18;;;;;;;0.40;0.40;;;22.20;43.90;;;;;;5984125;29;20343;-75
2023/05/13 13:40:25;;;;;;;0.40;0.30;;;22.20;44.10;;;;;;5988338;29;20123;-75
2023/05/13 13:43:34;;;;;;;6.05;0.60;;;22.10;44.20;;;;;;6006281;29;20053;-76
2023/05/13 13:46:38;;;;;;;0.45;0.35;;;22.10;44.30;;;;;;5999650;29;20039;-76
2023/05/13 13:49:47;;;;;;;4.28;0.55;;;22.00;44.30;;;;;;5983820;29;20079;-74
2023/05/13 13:52:54;;;;;;;0.63;0.50;;;21.90;44.80;;;;;;5969270;29;20121;-73
2023/05/13 13:56:06;;;;;;;1.05;0.40;;;21.80;45.70;;;;;;5983460;29;20043;-74
2023/05/13 13:59:19;;;;;;;4.75;0.50;;;21.60;46.70;;;;;;5984893;29;20037;-73
2023/05/13 14:02:26;;;;;;;3.88;1.00;;;21.40;47.50;;;;;;5984332;29;20065;-75
2023/05/13 14:05:35;;;;;;;1.25;0.70;;;21.30;48.40;;;;;;5984769;29;20026;-74
2023/05/13 14:08:41;;;;;;;2.60;0.73;;;21.20;49.50;;;;;;5983309;29;20058;-75
2023/05/13 14:11:51;;;;;;;0.97;0.50;;;21.10;50.10;;;;;;5997959;29;20119;-74
2023/05/13 14:15:00;;;;;;;2.05;0.57;;;20.90;50.70;;;;;;5982707;29;20327;-76
2023/05/13 14:18:10;;;;;;;4.43;1.23;;;20.80;51.20;;;;;;5985183;29;20471;-75
2023/05/13 14:21:17;;;;;;;2.38;0.57;;;20.70;51.70;;;;;;5985254;29;20283;-76
2023/05/13 14:24:26;;;;;;;1.13;0.80;;;20.60;52.10;;;;;;5984782;29;20105;-77
2023/05/13 14:27:35;;;;;;;2.17;1.38;;;20.50;52.30;;;;;;5997690;29;20066;-75
2023/05/13 14:30:40;;;;;;;21.33;2.10;;;20.40;52.80;;;;;;5984150;29;20037;-73
2023/05/13 14:33:49;;;;;;;4.45;1.63;;;20.30;53.30;;;;;;5982281;29;20057;-75
2023/05/13 14:36:53;;;;;;;2.03;0.80;;;20.20;53.70;;;;;;5983880;29;20125;-75
2023/05/13 14:39:59;;;;;;;1.08;0.50;;;20.10;53.80;;;;;;5996755;29;20281;-75
2023/05/13 14:43:08;;;;;;;0.98;0.43;;;20.00;53.80;;;;;;5960653;29;20038;-73
2023/05/13 14:46:17;;;;;;;1.50;0.90;;;19.90;54.50;;;;;;5959232;29;20075;-74
2023/05/13 14:49:23;;;;;;;2.70;1.00;;;19.90;54.70;;;;;;5960036;29;20034;-78
2023/05/13 14:52:30;;;;;;;1.95;0.65;;;19.80;54.60;;;;;;5958855;29;20046;-75
2023/05/13 14:55:35;;;;;;;5.15;1.20;;;19.80;54.80;;;;;;5960327;29;20081;-74
2023/05/13 14:58:42;;;;;;;1.15;0.70;;;19.80;55.00;;;;;;5958472;29;20050;-74
2023/05/13 15:01:50;;;;;;;3.08;0.88;;;19.70;55.20;;;;;;5960204;29;20034;-75
2023/05/13 15:04:59;;;;;;;2.83;1.55;;;19.70;55.40;;;;;;5974458;29;20030;-75
2023/05/13 15:08:05;;;;;;;6.15;2.85;;;19.70;55.50;;;;;;5959745;29;20035;-76
2023/05/13 15:11:19;;;;;;;6.32;1.77;;;19.70;55.50;;;;;;5959422;29;20031;-74
2023/05/13 15:14:28;;;;;;;8.32;2.40;;;19.80;55.50;;;;;;5959738;29;20027;-74
2023/05/13 15:17:36;;;;;;;1.20;1.10;;;19.90;55.40;;;;;;5958486;29;20039;-74
2023/05/13 15:20:44;;;;;;;3.30;1.00;;;20.10;55.40;;;;;;5958378;29;20148;-75
2023/05/13 15:23:54;;;;;;;3.30;1.20;;;20.20;55.60;;;;;;5972681;29;20110;-73
2023/05/13 15:27:09;;;;;;;2.10;1.17;;;20.20;55.40;;;;;;5959251;29;20507;-76
2023/05/13 15:30:19;;;;;;;2.45;1.27;;;20.20;55.60;;;;;;5959462;29;20169;-75
2023/05/13 15:33:25;;;;;;;0.98;0.80;;;20.20;55.30;;;;;;5966408;29;20041;-74
2023/05/13 15:36:32;;;;;;;1.67;0.70;;;20.30;55.10;;;;;;5978537;29;20518;-75
2023/05/13 15:39:38;;;;;;;1.05;0.73;;;20.40;55.10;;;;;;5957437;29;20040;-75
2023/05/13 15:42:47;;;;;;;5.15;0.80;;;20.50;55.10;;;;;;5959509;29;20058;-73
2023/05/13 15:45:57;;;;;;;1.40;0.80;;;20.60;55.00;;;;;;5957774;29;20054;-74
2023/05/13 15:49:06;;;;;;;1.10;0.70;;;20.70;54.80;;;;;;5957656;29;20039;-73
2023/05/13 15:52:20;;;;;;;1.70;0.60;;;20.80;54.50;;;;;;5959098;29;20518;-74
2023/05/13 15:55:30;;;;;;;2.10;0.68;;;20.90;54.70;;;;;;5971032;29;20030;-74
2023/05/13 15:58:35;;;;;;;2.03;0.60;;;21.00;54.00;;;;;;5995351;29;20038;-73
2023/05/13 16:01:40;;;;;;;2.45;1.15;;;21.10;53.50;;;;;;5980083;29;20042;-75
2023/05/13 16:04:46;;;;;;;3.20;0.75;;;21.10;53.00;;;;;;5980768;29;20131;-76
2023/05/13 16:07:55;;;;;;;1.40;0.63;;;21.20;52.60;;;;;;5981684;29;20031;-77
2023/05/13 16:11:08;;;;;;;0.73;0.45;;;21.20;52.30;;;;;;5994931;29;20121;-74
2023/05/13 16:14:17;;;;;;;0.68;0.68;;;21.30;52.20;;;;;;5981571;29;20118;-74
2023/05/13 16:17:23;;;;;;;0.80;0.60;;;21.30;51.90;;;;;;5980251;29;20035;-73
2023/05/13 16:20:31;;;;;;;0.80;0.50;;;21.20;52.00;;;;;;5980180;29;20027;-75
2023/05/13 16:23:37;;;;;;;1.88;0.52;;;21.00;51.70;;;;;;5981050;29;20083;-73
2023/05/13 16:26:46;;;;;;;1.15;0.55;;;20.90;51.80;;;;;;5994676;29;20505;-75
2023/05/13 16:29:51;;;;;;;0.45;0.45;;;20.70;52.10;;;;;;5981627;29;20070;-75
2023/05/13 16:33:01;;;;;;;0.95;0.57;;;20.50;52.00;;;;;;5982723;29;20039;-74